sensor_id;sensor_type;location;lat;lon;timestamp;temperature;humidity
22112;DHT22;11222;50.872;4.312;2023-07-20T00:01:47;17.70;99.90
22112;DHT22;11222;50.872;4.312;2023-07-20T00:04:13;17.70;99.90
22112;DHT22;11222;50.872;4.312;2023-07-20T00:06:39;17.70;99.90
22112;DHT22;11222;50.872;4.312;2023-07-20T00:09:08;17.70;99.90
22112;DHT22;11222;50.872;4.312;2023-07-20T00:11:36;17.70;99.90
22112;DHT22;11222;50.872;4.312;2023-07-20T00:14:06;17.70;99.90
22112;DHT22;11222;50.872;4.312;2023-07-20T00:16:32;17.70;99.90
22112;DHT22;11222;50.872;4.312;2023-07-20T00:18:58;17.70;99.90
22112;DHT22;11222;50.872;4.312;2023-07-20T00:21:23;17.70;99.90
22112;DHT22;11222;50.872;4.312;2023-07-20T00:23:49;17.70;99.90
22112;DHT22;11222;50.872;4.312;2023-07-20T00:26:15;17.70;99.90
22112;DHT22;11222;50.872;4.312;2023-07-20T00:28:40;17.70;99.90
22112;DHT22;11222;50.872;4.312;2023-07-20T00:31:06;17.60;99.90
22112;DHT22;11222;50.872;4.312;2023-07-20T00:33:32;17.60;99.90
22112;DHT22;11222;50.872;4.312;2023-07-20T00:35:58;17.60;99.90
22112;DHT22;11222;50.872;4.312;2023-07-20T00:38:23;17.60;99.90
22112;DHT22;11222;50.872;4.312;2023-07-20T00:40:49;17.60;99.90
22112;DHT22;11222;50.872;4.312;2023-07-20T00:43:15;17.60;99.90
22112;DHT22;11222;50.872;4.312;2023-07-20T00:45:41;17.70;99.90
22112;DHT22;11222;50.872;4.312;2023-07-20T00:48:07;17.70;99.90
22112;DHT22;11222;50.872;4.312;2023-07-20T00:50:34;17.80;99.90
22112;DHT22;11222;50.872;4.312;2023-07-20T00:53:00;17.90;99.90
22112;DHT22;11222;50.872;4.312;2023-07-20T00:55:30;17.90;99.90
22112;DHT22;11222;50.872;4.312;2023-07-20T00:57:56;17.90;99.90
22112;DHT22;11222;50.872;4.312;2023-07-20T01:00:22;17.90;99.90
22112;DHT22;11222;50.872;4.312;2023-07-20T01:02:47;17.90;99.90
22112;DHT22;11222;50.872;4.312;2023-07-20T01:05:13;18.00;99.90
22112;DHT22;11222;50.872;4.312;2023-07-20T01:08:06;18.00;99.90
22112;DHT22;11222;50.872;4.312;2023-07-20T01:13:07;17.80;99.90
22112;DHT22;11222;50.872;4.312;2023-07-20T01:15:36;17.80;99.90
22112;DHT22;11222;50.872;4.312;2023-07-20T01:18:01;17.70;99.90
22112;DHT22;11222;50.872;4.312;2023-07-20T01:20:30;17.60;99.90
22112;DHT22;11222;50.872;4.312;2023-07-20T01:33:47;17.60;99.90
22112;DHT22;11222;50.872;4.312;2023-07-20T01:36:14;17.60;99.90
22112;DHT22;11222;50.872;4.312;2023-07-20T01:38:42;17.50;99.90
22112;DHT22;11222;50.872;4.312;2023-07-20T01:41:08;17.60;99.90
22112;DHT22;11222;50.872;4.312;2023-07-20T01:43:34;17.50;99.90
22112;DHT22;11222;50.872;4.312;2023-07-20T01:46:00;17.50;99.90
22112;DHT22;11222;50.872;4.312;2023-07-20T01:48:25;17.50;99.90
22112;DHT22;11222;50.872;4.312;2023-07-20T01:50:51;17.50;99.90
22112;DHT22;11222;50.872;4.312;2023-07-20T01:53:17;17.50;99.90
22112;DHT22;11222;50.872;4.312;2023-07-20T01:55:43;17.40;99.90
22112;DHT22;11222;50.872;4.312;2023-07-20T01:58:08;17.40;99.90
22112;DHT22;11222;50.872;4.312;2023-07-20T02:00:36;17.40;99.90
22112;DHT22;11222;50.872;4.312;2023-07-20T02:03:02;17.40;99.90
22112;DHT22;11222;50.872;4.312;2023-07-20T02:05:27;17.40;99.90
22112;DHT22;11222;50.872;4.312;2023-07-20T02:07:53;17.40;99.90
22112;DHT22;11222;50.872;4.312;2023-07-20T02:10:19;17.50;99.90
22112;DHT22;11222;50.872;4.312;2023-07-20T02:12:44;17.50;99.90
22112;DHT22;11222;50.872;4.312;2023-07-20T02:15:10;17.50;99.90
22112;DHT22;11222;50.872;4.312;2023-07-20T02:17:36;17.40;99.90
22112;DHT22;11222;50.872;4.312;2023-07-20T02:20:02;17.40;99.90
22112;DHT22;11222;50.872;4.312;2023-07-20T02:22:28;17.30;99.90
22112;DHT22;11222;50.872;4.312;2023-07-20T02:24:54;17.30;99.90
22112;DHT22;11222;50.872;4.312;2023-07-20T02:27:19;17.30;99.90
22112;DHT22;11222;50.872;4.312;2023-07-20T02:29:45;17.30;99.90
22112;DHT22;11222;50.872;4.312;2023-07-20T02:32:11;17.30;99.90
22112;DHT22;11222;50.872;4.312;2023-07-20T02:34:36;17.30;99.90
22112;DHT22;11222;50.872;4.312;2023-07-20T02:37:02;17.30;99.90
22112;DHT22;11222;50.872;4.312;2023-07-20T02:39:28;17.30;99.90
22112;DHT22;11222;50.872;4.312;2023-07-20T02:41:54;17.30;99.90
22112;DHT22;11222;50.872;4.312;2023-07-20T02:44:20;17.20;99.90
22112;DHT22;11222;50.872;4.312;2023-07-20T02:46:45;17.20;99.90
22112;DHT22;11222;50.872;4.312;2023-07-20T02:49:11;17.20;99.90
22112;DHT22;11222;50.872;4.312;2023-07-20T02:51:37;17.20;99.90
22112;DHT22;11222;50.872;4.312;2023-07-20T02:54:03;17.10;99.90
22112;DHT22;11222;50.872;4.312;2023-07-20T02:56:29;17.10;99.90
22112;DHT22;11222;50.872;4.312;2023-07-20T02:58:54;17.10;99.90
22112;DHT22;11222;50.872;4.312;2023-07-20T03:01:20;17.10;99.90
22112;DHT22;11222;50.872;4.312;2023-07-20T03:03:46;17.10;99.90
22112;DHT22;11222;50.872;4.312;2023-07-20T03:06:15;17.10;99.90
22112;DHT22;11222;50.872;4.312;2023-07-20T03:08:42;17.10;99.90
22112;DHT22;11222;50.872;4.312;2023-07-20T03:11:13;17.10;99.90
22112;DHT22;11222;50.872;4.312;2023-07-20T03:13:40;17.10;99.90
22112;DHT22;11222;50.872;4.312;2023-07-20T03:16:06;17.00;99.90
22112;DHT22;11222;50.872;4.312;2023-07-20T03:18:37;16.90;99.90
22112;DHT22;11222;50.872;4.312;2023-07-20T03:21:03;16.80;99.90
22112;DHT22;11222;50.872;4.312;2023-07-20T03:23:29;16.70;99.90
22112;DHT22;11222;50.872;4.312;2023-07-20T03:25:55;16.70;99.90
22112;DHT22;11222;50.872;4.312;2023-07-20T03:28:20;16.70;99.90
22112;DHT22;11222;50.872;4.312;2023-07-20T03:30:46;16.70;99.90
22112;DHT22;11222;50.872;4.312;2023-07-20T03:33:12;16.80;99.90
22112;DHT22;11222;50.872;4.312;2023-07-20T03:35:37;16.80;99.90
22112;DHT22;11222;50.872;4.312;2023-07-20T03:38:03;16.80;99.90
22112;DHT22;11222;50.872;4.312;2023-07-20T03:40:29;16.90;99.90
22112;DHT22;11222;50.872;4.312;2023-07-20T03:42:55;17.00;99.90
22112;DHT22;11222;50.872;4.312;2023-07-20T03:45:21;17.10;99.90
22112;DHT22;11222;50.872;4.312;2023-07-20T03:47:49;17.20;99.90
22112;DHT22;11222;50.872;4.312;2023-07-20T03:50:15;17.20;99.90
22112;DHT22;11222;50.872;4.312;2023-07-20T03:52:40;17.20;99.90
22112;DHT22;11222;50.872;4.312;2023-07-20T03:55:06;17.10;99.90
22112;DHT22;11222;50.872;4.312;2023-07-20T03:57:32;17.10;99.90
22112;DHT22;11222;50.872;4.312;2023-07-20T03:59:59;17.10;99.90
22112;DHT22;11222;50.872;4.312;2023-07-20T04:02:24;17.10;99.90
22112;DHT22;11222;50.872;4.312;2023-07-20T04:04:51;17.10;99.90
22112;DHT22;11222;50.872;4.312;2023-07-20T04:07:16;17.10;99.90
22112;DHT22;11222;50.872;4.312;2023-07-20T04:09:42;17.00;99.90
22112;DHT22;11222;50.872;4.312;2023-07-20T04:12:08;17.00;99.90
22112;DHT22;11222;50.872;4.312;2023-07-20T04:14:33;17.00;99.90
22112;DHT22;11222;50.872;4.312;2023-07-20T04:16:59;17.00;99.90
22112;DHT22;11222;50.872;4.312;2023-07-20T04:19:26;17.00;99.90
22112;DHT22;11222;50.872;4.312;2023-07-20T04:21:51;17.00;99.90
22112;DHT22;11222;50.872;4.312;2023-07-20T04:24:17;17.10;99.90
22112;DHT22;11222;50.872;4.312;2023-07-20T04:26:43;17.10;99.90
22112;DHT22;11222;50.872;4.312;2023-07-20T04:29:08;17.20;99.90
22112;DHT22;11222;50.872;4.312;2023-07-20T04:31:34;17.30;99.90
22112;DHT22;11222;50.872;4.312;2023-07-20T04:34:00;17.40;99.90
22112;DHT22;11222;50.872;4.312;2023-07-20T04:36:26;17.30;99.90
22112;DHT22;11222;50.872;4.312;2023-07-20T04:38:52;17.40;99.90
22112;DHT22;11222;50.872;4.312;2023-07-20T04:41:17;17.40;99.90
22112;DHT22;11222;50.872;4.312;2023-07-20T04:43:44;17.40;99.90
22112;DHT22;11222;50.872;4.312;2023-07-20T04:46:10;17.30;99.90
22112;DHT22;11222;50.872;4.312;2023-07-20T04:48:36;17.30;99.90
22112;DHT22;11222;50.872;4.312;2023-07-20T04:51:02;17.30;99.90
22112;DHT22;11222;50.872;4.312;2023-07-20T04:53:28;17.40;99.90
22112;DHT22;11222;50.872;4.312;2023-07-20T04:55:54;17.50;99.90
22112;DHT22;11222;50.872;4.312;2023-07-20T04:58:21;17.60;99.90
22112;DHT22;11222;50.872;4.312;2023-07-20T05:00:52;17.60;99.90
22112;DHT22;11222;50.872;4.312;2023-07-20T05:03:18;17.70;99.90
22112;DHT22;11222;50.872;4.312;2023-07-20T05:05:43;17.80;99.90
22112;DHT22;11222;50.872;4.312;2023-07-20T05:08:09;17.80;99.90
22112;DHT22;11222;50.872;4.312;2023-07-20T05:10:35;17.90;99.90
22112;DHT22;11222;50.872;4.312;2023-07-20T05:13:00;17.90;99.90
22112;DHT22;11222;50.872;4.312;2023-07-20T05:15:26;18.00;99.90
22112;DHT22;11222;50.872;4.312;2023-07-20T05:17:52;18.10;99.90
22112;DHT22;11222;50.872;4.312;2023-07-20T05:20:18;18.10;99.90
22112;DHT22;11222;50.872;4.312;2023-07-20T05:22:44;18.10;99.90
22112;DHT22;11222;50.872;4.312;2023-07-20T05:25:10;18.10;99.90
22112;DHT22;11222;50.872;4.312;2023-07-20T05:27:37;18.00;99.90
22112;DHT22;11222;50.872;4.312;2023-07-20T05:30:04;18.00;99.90
22112;DHT22;11222;50.872;4.312;2023-07-20T05:32:30;18.00;99.90
22112;DHT22;11222;50.872;4.312;2023-07-20T05:34:56;18.00;99.90
22112;DHT22;11222;50.872;4.312;2023-07-20T05:37:22;18.10;99.90
22112;DHT22;11222;50.872;4.312;2023-07-20T05:39:47;18.20;99.90
22112;DHT22;11222;50.872;4.312;2023-07-20T05:42:13;18.20;99.90
22112;DHT22;11222;50.872;4.312;2023-07-20T05:44:40;18.20;99.90
22112;DHT22;11222;50.872;4.312;2023-07-20T05:47:06;18.20;99.90
22112;DHT22;11222;50.872;4.312;2023-07-20T05:49:32;18.20;99.90
22112;DHT22;11222;50.872;4.312;2023-07-20T05:51:57;18.20;99.90
22112;DHT22;11222;50.872;4.312;2023-07-20T05:54:27;18.20;99.90
22112;DHT22;11222;50.872;4.312;2023-07-20T05:56:52;18.20;99.90
22112;DHT22;11222;50.872;4.312;2023-07-20T05:59:19;18.20;99.90
22112;DHT22;11222;50.872;4.312;2023-07-20T06:01:49;18.20;99.90
22112;DHT22;11222;50.872;4.312;2023-07-20T06:04:14;18.20;99.90
22112;DHT22;11222;50.872;4.312;2023-07-20T06:06:42;18.20;99.90
22112;DHT22;11222;50.872;4.312;2023-07-20T06:09:07;18.30;99.90
22112;DHT22;11222;50.872;4.312;2023-07-20T06:11:38;18.20;99.90
22112;DHT22;11222;50.872;4.312;2023-07-20T06:14:03;18.20;99.90
22112;DHT22;11222;50.872;4.312;2023-07-20T06:16:29;18.30;99.90
22112;DHT22;11222;50.872;4.312;2023-07-20T06:18:55;18.40;99.90
22112;DHT22;11222;50.872;4.312;2023-07-20T06:21:21;18.60;99.90
22112;DHT22;11222;50.872;4.312;2023-07-20T06:23:46;18.60;99.90
22112;DHT22;11222;50.872;4.312;2023-07-20T06:26:12;18.70;99.90
22112;DHT22;11222;50.872;4.312;2023-07-20T06:28:38;18.70;99.90
22112;DHT22;11222;50.872;4.312;2023-07-20T06:31:04;18.70;99.90
22112;DHT22;11222;50.872;4.312;2023-07-20T06:33:30;18.80;99.90
22112;DHT22;11222;50.872;4.312;2023-07-20T06:35:55;18.90;99.90
22112;DHT22;11222;50.872;4.312;2023-07-20T06:38:22;19.10;99.90
22112;DHT22;11222;50.872;4.312;2023-07-20T06:40:49;19.30;99.90
22112;DHT22;11222;50.872;4.312;2023-07-20T06:43:15;19.40;99.90
22112;DHT22;11222;50.872;4.312;2023-07-20T06:45:41;19.50;99.90
22112;DHT22;11222;50.872;4.312;2023-07-20T06:48:07;19.60;99.90
22112;DHT22;11222;50.872;4.312;2023-07-20T06:50:33;19.80;99.90
22112;DHT22;11222;50.872;4.312;2023-07-20T06:52:59;19.80;99.90
22112;DHT22;11222;50.872;4.312;2023-07-20T06:55:25;20.00;99.90
22112;DHT22;11222;50.872;4.312;2023-07-20T06:57:51;20.00;99.90
22112;DHT22;11222;50.872;4.312;2023-07-20T07:00:17;20.10;99.90
22112;DHT22;11222;50.872;4.312;2023-07-20T07:02:43;20.30;99.90
22112;DHT22;11222;50.872;4.312;2023-07-20T07:05:09;20.50;99.90
22112;DHT22;11222;50.872;4.312;2023-07-20T07:07:35;20.50;99.90
22112;DHT22;11222;50.872;4.312;2023-07-20T07:10:01;20.70;99.90
22112;DHT22;11222;50.872;4.312;2023-07-20T07:12:29;20.80;99.90
22112;DHT22;11222;50.872;4.312;2023-07-20T07:14:55;20.70;99.90
22112;DHT22;11222;50.872;4.312;2023-07-20T07:17:20;20.70;99.90
22112;DHT22;11222;50.872;4.312;2023-07-20T07:19:46;20.90;99.90
22112;DHT22;11222;50.872;4.312;2023-07-20T07:22:12;21.20;99.90
22112;DHT22;11222;50.872;4.312;2023-07-20T07:24:37;21.20;99.90
22112;DHT22;11222;50.872;4.312;2023-07-20T07:27:03;21.20;99.90
22112;DHT22;11222;50.872;4.312;2023-07-20T07:29:29;21.50;99.90
22112;DHT22;11222;50.872;4.312;2023-07-20T07:31:55;21.60;99.90
22112;DHT22;11222;50.872;4.312;2023-07-20T07:34:20;22.00;99.90
22112;DHT22;11222;50.872;4.312;2023-07-20T07:36:46;22.00;99.90
22112;DHT22;11222;50.872;4.312;2023-07-20T07:39:12;22.20;99.90
22112;DHT22;11222;50.872;4.312;2023-07-20T07:41:38;23.00;99.90
22112;DHT22;11222;50.872;4.312;2023-07-20T07:44:04;23.10;99.90
22112;DHT22;11222;50.872;4.312;2023-07-20T07:46:30;23.60;99.90
22112;DHT22;11222;50.872;4.312;2023-07-20T07:48:56;25.10;99.90
22112;DHT22;11222;50.872;4.312;2023-07-20T07:51:21;26.00;99.90
22112;DHT22;11222;50.872;4.312;2023-07-20T07:53:47;27.20;99.90
22112;DHT22;11222;50.872;4.312;2023-07-20T07:56:14;27.10;99.90
22112;DHT22;11222;50.872;4.312;2023-07-20T07:58:40;27.30;99.90
22112;DHT22;11222;50.872;4.312;2023-07-20T08:01:06;27.30;99.90
22112;DHT22;11222;50.872;4.312;2023-07-20T08:03:31;27.40;99.90
22112;DHT22;11222;50.872;4.312;2023-07-20T08:05:57;27.20;99.90
22112;DHT22;11222;50.872;4.312;2023-07-20T08:08:25;28.30;99.90
22112;DHT22;11222;50.872;4.312;2023-07-20T08:10:53;29.10;99.90
22112;DHT22;11222;50.872;4.312;2023-07-20T08:13:20;28.10;99.90
22112;DHT22;11222;50.872;4.312;2023-07-20T08:15:49;26.80;99.90
22112;DHT22;11222;50.872;4.312;2023-07-20T08:18:17;27.30;99.90
22112;DHT22;11222;50.872;4.312;2023-07-20T08:20:46;28.50;99.90
22112;DHT22;11222;50.872;4.312;2023-07-20T08:23:12;30.00;99.90
22112;DHT22;11222;50.872;4.312;2023-07-20T08:25:39;30.80;99.60
22112;DHT22;11222;50.872;4.312;2023-07-20T08:28:07;28.40;99.90
22112;DHT22;11222;50.872;4.312;2023-07-20T08:30:46;30.90;99.70
22112;DHT22;11222;50.872;4.312;2023-07-20T08:33:17;32.40;95.30
22112;DHT22;11222;50.872;4.312;2023-07-20T08:35:44;33.40;91.60
22112;DHT22;11222;50.872;4.312;2023-07-20T08:38:10;34.40;86.30
22112;DHT22;11222;50.872;4.312;2023-07-20T08:40:44;31.90;89.60
22112;DHT22;11222;50.872;4.312;2023-07-20T08:43:11;30.90;90.00
22112;DHT22;11222;50.872;4.312;2023-07-20T08:45:39;29.50;92.70
22112;DHT22;11222;50.872;4.312;2023-07-20T08:48:06;27.60;96.90
22112;DHT22;11222;50.872;4.312;2023-07-20T08:50:32;26.60;99.00
22112;DHT22;11222;50.872;4.312;2023-07-20T08:52:59;26.00;99.90
22112;DHT22;11222;50.872;4.312;2023-07-20T08:55:29;25.30;99.90
22112;DHT22;11222;50.872;4.312;2023-07-20T08:57:56;24.60;99.90
22112;DHT22;11222;50.872;4.312;2023-07-20T09:00:23;24.10;99.90
22112;DHT22;11222;50.872;4.312;2023-07-20T09:02:53;24.00;99.90
22112;DHT22;11222;50.872;4.312;2023-07-20T09:05:23;24.00;99.90
22112;DHT22;11222;50.872;4.312;2023-07-20T09:07:51;25.00;99.90
22112;DHT22;11222;50.872;4.312;2023-07-20T09:10:16;25.00;99.90
22112;DHT22;11222;50.872;4.312;2023-07-20T09:12:43;25.30;99.90
22112;DHT22;11222;50.872;4.312;2023-07-20T09:15:10;25.00;99.90
22112;DHT22;11222;50.872;4.312;2023-07-20T09:17:37;24.90;99.90
22112;DHT22;11222;50.872;4.312;2023-07-20T09:20:07;25.20;99.90
22112;DHT22;11222;50.872;4.312;2023-07-20T09:22:37;24.70;99.90
22112;DHT22;11222;50.872;4.312;2023-07-20T09:25:17;24.00;99.90
22112;DHT22;11222;50.872;4.312;2023-07-20T09:27:44;23.80;99.90
22112;DHT22;11222;50.872;4.312;2023-07-20T09:30:10;23.60;99.90
22112;DHT22;11222;50.872;4.312;2023-07-20T09:32:47;24.00;99.90
22112;DHT22;11222;50.872;4.312;2023-07-20T09:35:14;24.10;99.90
22112;DHT22;11222;50.872;4.312;2023-07-20T09:37:41;24.70;99.90
22112;DHT22;11222;50.872;4.312;2023-07-20T09:40:08;26.00;99.90
22112;DHT22;11222;50.872;4.312;2023-07-20T09:42:35;27.00;99.90
22112;DHT22;11222;50.872;4.312;2023-07-20T09:45:02;27.60;99.90
22112;DHT22;11222;50.872;4.312;2023-07-20T09:47:28;27.50;99.90
22112;DHT22;11222;50.872;4.312;2023-07-20T09:50:00;28.50;99.30
22112;DHT22;11222;50.872;4.312;2023-07-20T09:52:26;30.50;95.30
22112;DHT22;11222;50.872;4.312;2023-07-20T09:54:52;29.50;94.40
22112;DHT22;11222;50.872;4.312;2023-07-20T09:57:21;27.90;96.60
22112;DHT22;11222;50.872;4.312;2023-07-20T09:59:47;27.00;99.30
22112;DHT22;11222;50.872;4.312;2023-07-20T10:02:25;25.90;99.90
22112;DHT22;11222;50.872;4.312;2023-07-20T10:04:56;25.30;99.90
22112;DHT22;11222;50.872;4.312;2023-07-20T10:07:27;25.00;99.90
22112;DHT22;11222;50.872;4.312;2023-07-20T10:09:56;24.70;99.90
22112;DHT22;11222;50.872;4.312;2023-07-20T10:12:25;24.60;99.90
22112;DHT22;11222;50.872;4.312;2023-07-20T10:15:05;24.60;99.90
22112;DHT22;11222;50.872;4.312;2023-07-20T10:17:36;25.00;99.90
22112;DHT22;11222;50.872;4.312;2023-07-20T10:20:03;25.60;99.90
22112;DHT22;11222;50.872;4.312;2023-07-20T10:22:34;25.80;99.90
22112;DHT22;11222;50.872;4.312;2023-07-20T10:25:01;25.90;99.90
22112;DHT22;11222;50.872;4.312;2023-07-20T10:27:27;26.30;99.90
22112;DHT22;11222;50.872;4.312;2023-07-20T10:29:53;26.70;99.50
22112;DHT22;11222;50.872;4.312;2023-07-20T10:32:20;27.20;99.40
22112;DHT22;11222;50.872;4.312;2023-07-20T10:34:51;27.30;98.00
22112;DHT22;11222;50.872;4.312;2023-07-20T10:37:46;29.00;96.50
22112;DHT22;11222;50.872;4.312;2023-07-20T10:43:02;28.00;94.30
22112;DHT22;11222;50.872;4.312;2023-07-20T10:45:42;27.10;96.00
22112;DHT22;11222;50.872;4.312;2023-07-20T10:48:24;26.40;98.50
22112;DHT22;11222;50.872;4.312;2023-07-20T10:51:12;26.30;98.70
22112;DHT22;11222;50.872;4.312;2023-07-20T10:53:40;27.40;98.60
22112;DHT22;11222;50.872;4.312;2023-07-20T10:56:15;29.20;95.00
22112;DHT22;11222;50.872;4.312;2023-07-20T10:58:44;31.30;92.00
22112;DHT22;11222;50.872;4.312;2023-07-20T11:01:14;30.70;90.90
22112;DHT22;11222;50.872;4.312;2023-07-20T11:03:40;32.00;88.40
22112;DHT22;11222;50.872;4.312;2023-07-20T11:08:55;32.20;83.60
22112;DHT22;11222;50.872;4.312;2023-07-20T11:11:23;30.30;83.70
22112;DHT22;11222;50.872;4.312;2023-07-20T11:13:56;29.20;87.60
22112;DHT22;11222;50.872;4.312;2023-07-20T11:16:37;28.50;89.60
22112;DHT22;11222;50.872;4.312;2023-07-20T11:19:03;27.70;92.20
22112;DHT22;11222;50.872;4.312;2023-07-20T11:21:37;26.90;93.60
22112;DHT22;11222;50.872;4.312;2023-07-20T11:24:04;26.80;94.20
22112;DHT22;11222;50.872;4.312;2023-07-20T11:26:30;26.10;94.60
22112;DHT22;11222;50.872;4.312;2023-07-20T11:29:04;26.20;95.10
22112;DHT22;11222;50.872;4.312;2023-07-20T11:31:30;26.10;96.40
22112;DHT22;11222;50.872;4.312;2023-07-20T11:33:55;25.70;96.50
22112;DHT22;11222;50.872;4.312;2023-07-20T11:36:21;25.40;97.10
22112;DHT22;11222;50.872;4.312;2023-07-20T11:38:47;25.90;97.30
22112;DHT22;11222;50.872;4.312;2023-07-20T11:41:13;25.90;95.60
22112;DHT22;11222;50.872;4.312;2023-07-20T11:43:40;26.00;94.80
22112;DHT22;11222;50.872;4.312;2023-07-20T11:46:07;25.80;95.40
22112;DHT22;11222;50.872;4.312;2023-07-20T11:48:33;26.20;95.30
22112;DHT22;11222;50.872;4.312;2023-07-20T11:50:58;25.20;95.10
22112;DHT22;11222;50.872;4.312;2023-07-20T11:53:24;24.90;95.70
22112;DHT22;11222;50.872;4.312;2023-07-20T11:55:51;24.80;96.40
22112;DHT22;11222;50.872;4.312;2023-07-20T11:58:17;24.80;97.30
22112;DHT22;11222;50.872;4.312;2023-07-20T12:00:44;24.80;97.30
22112;DHT22;11222;50.872;4.312;2023-07-20T12:03:11;24.90;96.90
22112;DHT22;11222;50.872;4.312;2023-07-20T12:05:40;24.70;97.70
22112;DHT22;11222;50.872;4.312;2023-07-20T12:08:06;24.70;97.90
22112;DHT22;11222;50.872;4.312;2023-07-20T12:10:32;24.70;98.50
22112;DHT22;11222;50.872;4.312;2023-07-20T12:13:02;25.00;99.30
22112;DHT22;11222;50.872;4.312;2023-07-20T12:15:30;25.20;98.70
22112;DHT22;11222;50.872;4.312;2023-07-20T12:18:01;25.20;97.80
22112;DHT22;11222;50.872;4.312;2023-07-20T12:20:30;25.40;97.50
22112;DHT22;11222;50.872;4.312;2023-07-20T12:23:12;25.30;97.90
22112;DHT22;11222;50.872;4.312;2023-07-20T12:25:42;25.10;96.80
22112;DHT22;11222;50.872;4.312;2023-07-20T12:28:15;24.80;97.40
22112;DHT22;11222;50.872;4.312;2023-07-20T12:30:42;24.80;97.40
22112;DHT22;11222;50.872;4.312;2023-07-20T12:33:08;24.80;98.20
22112;DHT22;11222;50.872;4.312;2023-07-20T12:35:34;24.80;97.80
22112;DHT22;11222;50.872;4.312;2023-07-20T12:38:00;25.00;98.20
22112;DHT22;11222;50.872;4.312;2023-07-20T12:40:26;25.40;98.00
22112;DHT22;11222;50.872;4.312;2023-07-20T12:42:52;25.50;97.40
22112;DHT22;11222;50.872;4.312;2023-07-20T12:45:17;25.40;96.20
22112;DHT22;11222;50.872;4.312;2023-07-20T12:47:43;25.50;95.50
22112;DHT22;11222;50.872;4.312;2023-07-20T12:50:12;25.50;96.10
22112;DHT22;11222;50.872;4.312;2023-07-20T12:52:39;25.50;96.60
22112;DHT22;11222;50.872;4.312;2023-07-20T12:55:06;25.70;96.20
22112;DHT22;11222;50.872;4.312;2023-07-20T12:57:37;25.30;96.30
22112;DHT22;11222;50.872;4.312;2023-07-20T13:00:07;24.90;97.60
22112;DHT22;11222;50.872;4.312;2023-07-20T13:02:35;24.90;98.90
22112;DHT22;11222;50.872;4.312;2023-07-20T13:05:02;24.60;99.50
22112;DHT22;11222;50.872;4.312;2023-07-20T13:07:36;24.40;99.40
22112;DHT22;11222;50.872;4.312;2023-07-20T13:10:03;24.10;99.60
22112;DHT22;11222;50.872;4.312;2023-07-20T13:12:31;24.10;99.90
22112;DHT22;11222;50.872;4.312;2023-07-20T13:14:57;24.20;99.90
22112;DHT22;11222;50.872;4.312;2023-07-20T13:17:28;24.30;99.90
22112;DHT22;11222;50.872;4.312;2023-07-20T13:19:55;24.00;99.90
22112;DHT22;11222;50.872;4.312;2023-07-20T13:22:20;23.80;99.90
22112;DHT22;11222;50.872;4.312;2023-07-20T13:24:46;23.60;99.90
22112;DHT22;11222;50.872;4.312;2023-07-20T13:27:14;23.40;99.90
22112;DHT22;11222;50.872;4.312;2023-07-20T13:29:40;23.30;99.90
22112;DHT22;11222;50.872;4.312;2023-07-20T13:32:08;23.20;99.90
22112;DHT22;11222;50.872;4.312;2023-07-20T13:34:34;23.20;99.90
22112;DHT22;11222;50.872;4.312;2023-07-20T13:37:00;23.10;99.90
22112;DHT22;11222;50.872;4.312;2023-07-20T13:39:26;22.80;99.90
22112;DHT22;11222;50.872;4.312;2023-07-20T13:41:53;22.50;99.90
22112;DHT22;11222;50.872;4.312;2023-07-20T13:44:19;22.20;99.90
22112;DHT22;11222;50.872;4.312;2023-07-20T13:46:46;22.10;99.90
22112;DHT22;11222;50.872;4.312;2023-07-20T13:49:12;22.00;99.90
22112;DHT22;11222;50.872;4.312;2023-07-20T13:51:37;21.90;99.90
22112;DHT22;11222;50.872;4.312;2023-07-20T13:54:03;21.80;99.90
22112;DHT22;11222;50.872;4.312;2023-07-20T13:56:29;21.90;99.90
22112;DHT22;11222;50.872;4.312;2023-07-20T13:58:55;21.60;99.90
22112;DHT22;11222;50.872;4.312;2023-07-20T14:01:20;21.70;99.90
22112;DHT22;11222;50.872;4.312;2023-07-20T14:03:48;21.60;99.90
22112;DHT22;11222;50.872;4.312;2023-07-20T14:06:14;21.80;99.90
22112;DHT22;11222;50.872;4.312;2023-07-20T14:08:40;21.90;99.90
22112;DHT22;11222;50.872;4.312;2023-07-20T14:11:06;22.10;99.90
22112;DHT22;11222;50.872;4.312;2023-07-20T14:13:32;22.40;99.90
22112;DHT22;11222;50.872;4.312;2023-07-20T14:15:58;22.80;99.90
22112;DHT22;11222;50.872;4.312;2023-07-20T14:18:23;23.30;99.90
22112;DHT22;11222;50.872;4.312;2023-07-20T14:20:49;23.50;99.90
22112;DHT22;11222;50.872;4.312;2023-07-20T14:23:15;23.60;99.90
22112;DHT22;11222;50.872;4.312;2023-07-20T14:25:40;23.50;99.90
22112;DHT22;11222;50.872;4.312;2023-07-20T14:28:07;23.50;99.90
22112;DHT22;11222;50.872;4.312;2023-07-20T14:30:33;23.30;99.90
22112;DHT22;11222;50.872;4.312;2023-07-20T14:32:58;23.30;99.90
22112;DHT22;11222;50.872;4.312;2023-07-20T14:35:24;23.30;99.90
22112;DHT22;11222;50.872;4.312;2023-07-20T14:37:49;23.30;99.90
22112;DHT22;11222;50.872;4.312;2023-07-20T14:40:16;23.50;99.90
22112;DHT22;11222;50.872;4.312;2023-07-20T14:42:41;23.60;99.90
22112;DHT22;11222;50.872;4.312;2023-07-20T14:45:07;23.70;99.90
22112;DHT22;11222;50.872;4.312;2023-07-20T14:47:33;23.50;99.90
22112;DHT22;11222;50.872;4.312;2023-07-20T14:50:01;23.40;99.90
22112;DHT22;11222;50.872;4.312;2023-07-20T14:52:28;23.40;99.90
22112;DHT22;11222;50.872;4.312;2023-07-20T14:54:54;23.50;99.90
22112;DHT22;11222;50.872;4.312;2023-07-20T14:57:20;23.60;99.90
22112;DHT22;11222;50.872;4.312;2023-07-20T14:59:48;23.50;99.90
22112;DHT22;11222;50.872;4.312;2023-07-20T15:02:14;23.60;99.90
22112;DHT22;11222;50.872;4.312;2023-07-20T15:04:49;23.90;99.90
22112;DHT22;11222;50.872;4.312;2023-07-20T15:07:19;23.90;99.90
22112;DHT22;11222;50.872;4.312;2023-07-20T15:09:45;23.90;99.90
22112;DHT22;11222;50.872;4.312;2023-07-20T15:12:11;23.80;99.90
22112;DHT22;11222;50.872;4.312;2023-07-20T15:14:40;23.60;99.90
22112;DHT22;11222;50.872;4.312;2023-07-20T15:17:10;23.50;99.90
22112;DHT22;11222;50.872;4.312;2023-07-20T15:19:36;23.50;99.90
22112;DHT22;11222;50.872;4.312;2023-07-20T15:22:02;23.30;99.90
22112;DHT22;11222;50.872;4.312;2023-07-20T15:24:29;23.10;99.90
22112;DHT22;11222;50.872;4.312;2023-07-20T15:26:55;23.00;99.90
22112;DHT22;11222;50.872;4.312;2023-07-20T15:29:20;22.90;99.90
22112;DHT22;11222;50.872;4.312;2023-07-20T15:31:47;22.70;99.90
22112;DHT22;11222;50.872;4.312;2023-07-20T15:34:13;22.70;99.90
22112;DHT22;11222;50.872;4.312;2023-07-20T15:36:41;22.60;99.90
22112;DHT22;11222;50.872;4.312;2023-07-20T15:39:07;21.70;99.90
22112;DHT22;11222;50.872;4.312;2023-07-20T15:41:33;21.10;99.90
22112;DHT22;11222;50.872;4.312;2023-07-20T15:43:59;20.70;99.90
22112;DHT22;11222;50.872;4.312;2023-07-20T15:49:05;20.20;99.90
22112;DHT22;11222;50.872;4.312;2023-07-20T15:51:33;19.80;99.90